Time;durP1;ratioP1;P1;durP2;ratioP2;P2;SDS_P1;SDS_P2;PMS_P1;PMS_P2;Temp;Humidity;BMP_temperature;BMP_pressure;BME280_temperature;BME280_humidity;BME280_pressure;Samples;Min_cycle;Max_cycle;Signal;HPM_P1;HPM_P2
2022/02/15 00:00:41;;;;;;;13.65;7.00;;;;;;;0.59;55.11;100117.51;1804574;79;21383;-37
2022/02/15 00:03:08;;;;;;;12.33;6.50;;;;;;;0.59;55.15;100114.84;1804483;79;21044;-37
2022/02/15 00:05:35;;;;;;;11.08;6.70;;;;;;;0.51;55.26;100108.22;1804464;79;21029;-37
2022/02/15 00:08:02;;;;;;;9.90;6.40;;;;;;;0.53;55.29;100111.42;1804452;79;21128;-37
2022/02/15 00:10:29;;;;;;;13.30;6.75;;;;;;;0.51;55.28;100107.42;1804335;79;21065;-38
2022/02/15 00:12:55;;;;;;;11.57;6.35;;;;;;;0.49;55.42;100108.22;1804627;79;20922;-37
2022/02/15 00:15:23;;;;;;;10.65;6.25;;;;;;;0.49;55.35;100118.36;1804519;79;20965;-37
2022/02/15 00:17:50;;;;;;;11.00;6.37;;;;;;;0.48;55.44;100106.64;1804608;79;21020;-38
2022/02/15 00:20:16;;;;;;;12.65;6.78;;;;;;;0.49;55.46;100110.36;1804417;79;21093;-38
2022/02/15 00:22:43;;;;;;;12.73;6.15;;;;;;;0.47;55.55;100107.72;1804834;79;20974;-38
2022/02/15 00:25:09;;;;;;;11.83;6.12;;;;;;;0.47;55.55;100103.71;1804435;79;20986;-38
2022/02/15 00:27:36;;;;;;;18.70;7.12;;;;;;;0.50;55.53;100096.48;1804773;79;21030;-38
2022/02/15 00:30:05;;;;;;;13.75;6.05;;;;;;;0.55;55.44;100100.45;1804604;79;20957;-38
2022/02/15 00:32:31;;;;;;;11.22;6.78;;;;;;;0.54;55.37;100096.98;1803096;79;21755;-38
2022/02/15 00:34:58;;;;;;;12.55;6.80;;;;;;;0.54;55.37;100098.86;1797410;79;21880;-38
2022/02/15 00:37:24;;;;;;;11.55;6.62;;;;;;;0.53;55.36;100095.95;1797532;79;20926;-38
2022/02/15 00:39:52;;;;;;;15.93;6.90;;;;;;;0.56;55.32;100091.39;1797125;79;21004;-37
2022/02/15 00:42:18;;;;;;;11.55;6.90;;;;;;;0.53;55.36;100084.75;1797152;79;21580;-37
2022/02/15 00:44:45;;;;;;;13.03;6.72;;;;;;;0.50;55.40;100087.14;1797034;79;21135;-38
2022/02/15 00:47:57;;;;;;;12.45;6.62;;;;;;;0.48;55.55;100085.31;1836255;78;22772;-37
2022/02/15 00:50:24;;;;;;;15.45;6.97;;;;;;;0.40;55.58;100087.47;1780996;79;21581;-37
2022/02/15 00:52:51;;;;;;;11.60;7.03;;;;;;;0.38;55.64;100084.29;1753347;81;21140;-37
2022/02/15 00:55:17;;;;;;;15.20;7.10;;;;;;;0.39;55.63;100085.86;1753310;81;21008;-37
2022/02/15 00:57:44;;;;;;;16.87;7.70;;;;;;;0.34;55.69;100075.75;1753069;81;20956;-37
2022/02/15 01:00:13;;;;;;;11.85;6.67;;;;;;;0.33;55.82;100079.52;1753226;81;21471;-37
2022/02/15 01:02:39;;;;;;;13.88;7.83;;;;;;;0.33;55.89;100076.84;1753219;81;21465;-37
2022/02/15 01:05:07;;;;;;;14.90;7.67;;;;;;;0.35;55.79;100074.69;1753196;81;21145;-37
2022/02/15 01:07:33;;;;;;;11.65;7.28;;;;;;;0.31;55.83;100074.97;1753107;81;20981;-37
2022/02/15 01:10:00;;;;;;;12.82;6.97;;;;;;;0.25;55.96;100076.86;1753300;81;20957;-37
2022/02/15 01:12:29;;;;;;;12.35;7.03;;;;;;;0.24;56.03;100083.27;1753289;81;20984;-37
2022/02/15 01:14:56;;;;;;;13.83;7.35;;;;;;;0.21;56.11;100069.16;1753477;81;21052;-37
2022/02/15 01:17:23;;;;;;;16.20;7.08;;;;;;;0.21;56.08;100071.02;1753296;81;21115;-37
2022/02/15 01:19:49;;;;;;;15.20;7.22;;;;;;;0.21;56.08;100069.69;1753252;81;20977;-37
2022/02/15 01:22:16;;;;;;;15.38;7.37;;;;;;;0.24;55.94;100074.48;1753141;80;21021;-37
2022/02/15 01:24:42;;;;;;;15.53;7.37;;;;;;;0.25;55.96;100075.53;1753110;81;20969;-37
2022/02/15 01:27:09;;;;;;;13.18;6.85;;;;;;;0.28;55.96;100075.53;1753238;81;21481;-37
2022/02/15 01:29:36;;;;;;;14.73;7.80;;;;;;;0.31;55.89;100077.64;1753061;81;21097;-37
2022/02/15 01:32:04;;;;;;;12.68;6.62;;;;;;;0.36;55.85;100081.09;1753003;81;21004;-37
2022/02/15 01:34:30;;;;;;;11.35;6.50;;;;;;;0.39;55.79;100079.20;1753360;80;21534;-37
2022/02/15 01:36:57;;;;;;;15.05;6.80;;;;;;;0.42;55.71;100078.66;1753201;81;20981;-37
2022/02/15 01:39:25;;;;;;;11.12;6.78;;;;;;;0.44;55.70;100073.03;1753416;81;21044;-37
2022/02/15 01:41:53;;;;;;;12.88;6.85;;;;;;;0.49;55.45;100073.54;1753246;81;21138;-37
2022/02/15 01:44:20;;;;;;;15.65;7.17;;;;;;;0.47;55.33;100077.04;1753390;81;20925;-37
2022/02/15 01:46:46;;;;;;;11.38;6.95;;;;;;;0.47;55.35;100077.84;1755404;81;21510;-36
2022/02/15 01:49:14;;;;;;;15.68;6.97;;;;;;;0.48;55.23;100075.97;1758856;81;21534;-37
2022/02/15 01:51:41;;;;;;;11.08;7.00;;;;;;;0.48;55.12;100074.10;1758977;81;21048;-37
2022/02/15 01:54:07;;;;;;;15.10;7.12;;;;;;;0.42;55.19;100073.33;1758971;81;21122;-37
2022/02/15 01:56:36;;;;;;;12.35;7.20;;;;;;;0.45;55.17;100074.64;1758975;81;21028;-36
2022/02/15 01:59:04;;;;;;;14.20;7.30;;;;;;;0.43;55.21;100077.59;1758669;81;21068;-37
2022/02/15 02:01:32;;;;;;;12.13;7.10;;;;;;;0.42;55.21;100074.66;1758218;81;20957;-37
2022/02/15 02:04:04;;;;;;;11.65;6.83;;;;;;;0.38;55.26;100072.29;1758224;81;21024;-37
2022/02/15 02:06:31;;;;;;;14.35;8.00;;;;;;;0.39;55.26;100074.39;1758313;81;21118;-37
2022/02/15 02:08:59;;;;;;;12.95;7.28;;;;;;;0.37;55.32;100070.69;1758131;81;21016;-36
2022/02/15 02:11:26;;;;;;;13.50;7.65;;;;;;;0.38;55.26;100072.29;1758176;81;21545;-37
2022/02/15 02:13:55;;;;;;;13.93;8.08;;;;;;;0.34;55.37;100073.88;1757973;81;20941;-37
2022/02/15 02:16:31;;;;;;;13.60;7.80;;;;;;;0.34;55.40;100070.41;1764286;81;21013;-37
2022/02/15 02:19:00;;;;;;;17.02;8.05;;;;;;;0.32;55.40;100064.05;1758205;81;21124;-37
2022/02/15 02:21:38;;;;;;;13.65;8.00;;;;;;;0.29;55.49;100068.57;1758179;81;21365;-37
2022/02/15 02:24:05;;;;;;;12.70;8.23;;;;;;;0.27;55.56;100076.06;1758313;81;21024;-37
2022/02/15 02:26:32;;;;;;;13.90;7.97;;;;;;;0.27;55.57;100077.41;1758217;81;21060;-37
2022/02/15 02:28:59;;;;;;;13.10;7.83;;;;;;;0.25;55.70;100074.20;1758253;81;21057;-37
2022/02/15 02:31:28;;;;;;;13.48;7.83;;;;;;;0.26;55.67;100075.00;1758175;81;21169;-37
2022/02/15 02:34:00;;;;;;;14.53;7.90;;;;;;;0.25;55.66;100068.06;1758399;81;21008;-37
2022/02/15 02:36:27;;;;;;;12.45;7.53;;;;;;;0.26;55.57;100072.33;1758489;81;20976;-37
2022/02/15 02:38:53;;;;;;;12.93;7.87;;;;;;;0.25;55.54;100074.20;1758729;81;20996;-37
2022/02/15 02:41:20;;;;;;;12.65;7.08;;;;;;;0.26;55.57;100080.33;1758346;81;20985;-37
2022/02/15 02:43:47;;;;;;;14.25;7.90;;;;;;;0.23;55.49;100073.69;1758434;81;21765;-37
2022/02/15 02:46:14;;;;;;;14.63;7.47;;;;;;;0.24;55.49;100079.27;1757654;81;21011;-38
2022/02/15 02:48:44;;;;;;;11.85;7.17;;;;;;;0.22;55.62;100072.62;1742345;82;20973;-37
2022/02/15 02:51:10;;;;;;;11.60;7.33;;;;;;;0.24;55.52;100071.27;1766968;81;21069;-36
2022/02/15 02:53:39;;;;;;;14.05;7.92;;;;;;;0.24;55.59;100065.92;1772844;80;20927;-37
2022/02/15 02:56:06;;;;;;;14.30;7.87;;;;;;;0.27;55.44;100072.06;1773005;81;21813;-37
2022/02/15 02:58:35;;;;;;;12.20;7.47;;;;;;;0.26;55.47;100074.47;1772989;81;20982;-37
2022/02/15 03:01:02;;;;;;;11.60;6.85;;;;;;;0.27;55.44;100068.60;1772835;81;20978;-37
2022/02/15 03:03:36;;;;;;;10.80;7.05;;;;;;;0.25;55.37;100066.20;1772811;79;21012;-38
2022/02/15 03:06:07;;;;;;;15.08;7.67;;;;;;;0.24;55.37;100073.93;1772827;81;21061;-38
2022/02/15 03:08:36;;;;;;;12.18;7.95;;;;;;;0.23;55.49;100071.02;1772686;81;21161;-39
2022/02/15 03:11:05;;;;;;;13.70;7.50;;;;;;;0.26;55.46;100072.33;1785637;79;20994;-38
2022/02/15 03:13:34;;;;;;;13.35;7.47;;;;;;;0.23;55.45;100061.69;1773220;79;21512;-39
2022/02/15 03:16:01;;;;;;;12.82;6.97;;;;;;;0.20;55.50;100060.89;1772849;81;20986;-38
2022/02/15 03:18:29;;;;;;;12.65;7.70;;;;;;;0.22;55.53;100065.95;1772834;81;21085;-39
2022/02/15 03:20:57;;;;;;;13.95;7.33;;;;;;;0.20;55.49;100060.89;1773211;79;21140;-39
2022/02/15 03:23:24;;;;;;;11.93;7.40;;;;;;;0.21;55.51;100066.48;1772650;79;21005;-39
2022/02/15 03:25:51;;;;;;;12.20;7.15;;;;;;;0.19;55.59;100058.52;1772874;81;20999;-38
2022/02/15 03:28:20;;;;;;;13.62;7.62;;;;;;;0.22;55.43;100059.29;1772892;79;21740;-39
2022/02/15 03:30:47;;;;;;;12.85;7.17;;;;;;;0.20;55.50;100056.89;1772901;81;21068;-38
2022/02/15 03:33:14;;;;;;;12.75;7.37;;;;;;;0.21;55.41;100059.02;1773126;81;21590;-38
2022/02/15 03:35:40;;;;;;;13.00;7.30;;;;;;;0.23;55.39;100057.69;1772946;81;21005;-39
2022/02/15 03:38:11;;;;;;;14.47;7.55;;;;;;;0.24;55.31;100061.16;1772920;80;21012;-38
2022/02/15 03:43:25;;;;;;;16.60;8.03;;;;;;;0.20;55.30;100058.22;1774075;79;21014;-38
2022/02/15 03:45:52;;;;;;;12.90;7.55;;;;;;;0.20;55.30;100066.22;1773149;81;21850;-39
2022/02/15 03:48:20;;;;;;;15.18;7.55;;;;;;;0.23;55.26;100064.36;1785747;80;20992;-38
2022/02/15 03:50:48;;;;;;;10.98;7.42;;;;;;;0.23;55.22;100067.55;1789501;79;21000;-38
2022/02/15 03:53:19;;;;;;;13.78;7.75;;;;;;;0.21;55.18;100069.16;1789587;80;21331;-38
2022/02/15 03:55:46;;;;;;;12.63;7.55;;;;;;;0.18;55.20;100063.05;1789378;79;21032;-39
2022/02/15 03:58:12;;;;;;;13.20;7.40;;;;;;;0.17;55.19;100065.44;1789415;79;21097;-38
2022/02/15 04:00:40;;;;;;;11.78;7.35;;;;;;;0.16;55.27;100063.84;1789362;80;20952;-38
2022/02/15 04:03:08;;;;;;;11.93;7.33;;;;;;;0.20;55.10;100064.89;1789388;79;21001;-38
2022/02/15 04:05:36;;;;;;;13.32;7.55;;;;;;;0.19;55.18;100061.98;1789352;79;20949;-39
2022/02/15 04:08:04;;;;;;;12.63;7.30;;;;;;;0.15;55.21;100054.24;1789461;80;21056;-38
2022/02/15 04:10:31;;;;;;;14.20;7.50;;;;;;;0.13;55.31;100060.40;1789720;80;21040;-38
2022/02/15 04:12:58;;;;;;;9.88;6.58;;;;;;;0.09;55.35;100054.03;1789303;80;20937;-38
2022/02/15 04:15:25;;;;;;;10.90;6.65;;;;;;;0.07;55.20;100052.16;1783511;80;20968;-38
2022/02/15 04:17:54;;;;;;;11.85;7.17;;;;;;;0.02;55.36;100049.52;1789543;79;20964;-38
2022/02/15 04:20:21;;;;;;;11.12;6.80;;;;;;;-0.03;55.33;100048.20;1789494;79;21483;-38
2022/02/15 04:22:48;;;;;;;13.20;7.50;;;;;;;-0.07;55.40;100056.48;1789292;80;21090;-38
2022/02/15 04:25:16;;;;;;;15.20;7.12;;;;;;;-0.10;55.49;100055.70;1789420;79;21181;-38
2022/02/15 04:27:45;;;;;;;14.58;7.45;;;;;;;-0.16;55.67;100056.25;1787272;78;20996;-38
2022/02/15 04:30:12;;;;;;;13.68;7.25;;;;;;;-0.17;55.82;100057.31;1783467;80;21032;-38
2022/02/15 04:32:40;;;;;;;13.03;7.42;;;;;;;-0.16;55.88;100066.11;1778141;80;21051;-38
2022/02/15 04:35:09;;;;;;;13.40;7.12;;;;;;;-0.16;55.87;100068.77;1783738;80;21819;-38
2022/02/15 04:37:36;;;;;;;11.33;7.25;;;;;;;-0.20;56.00;100068.52;1783450;79;21056;-38
2022/02/15 04:40:08;;;;;;;11.55;7.12;;;;;;;-0.20;55.99;100065.05;1785628;78;21487;-38
2022/02/15 04:42:35;;;;;;;14.40;7.28;;;;;;;-0.22;56.08;100069.84;1769567;80;20973;-38
2022/02/15 04:45:02;;;;;;;17.12;7.15;;;;;;;-0.20;56.06;100071.19;1789738;79;21080;-39
2022/02/15 04:47:32;;;;;;;16.73;7.47;;;;;;;-0.22;56.13;100071.18;1788553;79;21126;-38
2022/02/15 04:49:58;;;;;;;12.88;7.45;;;;;;;-0.21;56.08;100069.58;1789461;80;20964;-38
2022/02/15 04:52:25;;;;;;;11.55;7.10;;;;;;;-0.23;56.07;100068.25;1789760;80;20925;-39
2022/02/15 04:54:52;;;;;;;12.47;6.95;;;;;;;-0.24;56.11;100069.34;1789291;80;20941;-38
2022/02/15 04:57:19;;;;;;;12.50;7.25;;;;;;;-0.29;56.20;100070.13;1789499;80;20977;-38
2022/02/15 04:59:46;;;;;;;14.18;7.55;;;;;;;-0.33;56.30;100068.27;1789538;80;21190;-39
2022/02/15 05:02:15;;;;;;;15.10;7.80;;;;;;;-0.35;56.42;100072.55;1789585;79;21033;-38
2022/02/15 05:04:48;;;;;;;13.20;7.17;;;;;;;-0.37;56.49;100071.21;1789418;79;20949;-38
2022/02/15 05:07:19;;;;;;;11.45;7.65;;;;;;;-0.42;56.57;100075.22;1789227;80;20921;-39
2022/02/15 05:09:46;;;;;;;13.55;7.55;;;;;;;-0.50;56.68;100084.56;1789661;79;21071;-38
2022/02/15 05:12:14;;;;;;;12.53;6.90;;;;;;;-0.62;57.04;100085.36;1789496;80;21138;-42
2022/02/15 05:14:42;;;;;;;14.65;7.67;;;;;;;-0.64;57.29;100086.18;1789288;79;20953;-38
2022/02/15 05:17:10;;;;;;;14.23;7.08;;;;;;;-0.68;57.50;100085.92;1789209;80;20952;-38
2022/02/15 05:19:39;;;;;;;14.47;7.62;;;;;;;-0.70;57.57;100094.70;1789754;79;21049;-38
2022/02/15 05:22:07;;;;;;;13.05;7.70;;;;;;;-0.77;57.80;100088.83;1789513;80;20962;-38
2022/02/15 05:24:38;;;;;;;14.43;7.60;;;;;;;-0.77;57.94;100091.49;1788461;79;21801;-38
2022/02/15 05:27:06;;;;;;;16.70;7.75;;;;;;;-0.81;58.17;100091.77;1789392;80;20933;-38
2022/02/15 05:29:40;;;;;;;14.75;7.87;;;;;;;-0.76;58.28;100093.63;1789096;79;21008;-38
2022/02/15 05:32:12;;;;;;;15.18;7.95;;;;;;;-0.76;58.42;100092.30;1781014;79;20978;-38
2022/02/15 05:34:42;;;;;;;16.40;8.47;;;;;;;-0.70;58.46;100100.55;1789727;80;21044;-38
2022/02/15 05:37:10;;;;;;;14.43;8.08;;;;;;;-0.63;58.43;100100.54;1789665;80;21076;-38
2022/02/15 05:39:39;;;;;;;15.45;8.58;;;;;;;-0.56;58.38;100097.08;1789632;79;21573;-38
2022/02/15 05:42:07;;;;;;;13.28;7.70;;;;;;;-0.49;58.23;100104.28;1789392;80;20993;-38
2022/02/15 05:44:33;;;;;;;13.30;7.55;;;;;;;-0.46;58.29;100105.06;1789642;80;21475;-39
2022/02/15 05:47:02;;;;;;;15.15;7.87;;;;;;;-0.47;58.22;100105.33;1789655;79;22120;-38
2022/02/15 05:49:30;;;;;;;12.58;7.25;;;;;;;-0.48;58.39;100107.19;1773435;79;21939;-38
2022/02/15 05:51:58;;;;;;;13.15;8.33;;;;;;;-0.46;58.47;100105.59;1772503;80;21008;-39
2022/02/15 05:54:27;;;;;;;14.63;8.38;;;;;;;-0.45;58.53;100102.67;1773133;79;20957;-39
2022/02/15 05:56:55;;;;;;;13.72;7.67;;;;;;;-0.46;58.72;100111.72;1773075;81;20973;-38
2022/02/15 05:59:23;;;;;;;15.68;8.18;;;;;;;-0.49;59.08;100114.94;1773795;80;20965;-39
2022/02/15 06:01:57;;;;;;;13.75;8.28;;;;;;;-0.49;59.25;100116.27;1773136;81;21128;-38
2022/02/15 06:04:26;;;;;;;12.50;7.40;;;;;;;-0.50;59.53;100109.87;1773310;79;21072;-39
2022/02/15 06:06:54;;;;;;;13.35;7.53;;;;;;;-0.48;59.68;100112.52;1772765;80;21587;-38
2022/02/15 06:09:22;;;;;;;12.85;7.50;;;;;;;-0.46;59.85;100110.39;1772883;79;20960;-39
2022/02/15 06:11:49;;;;;;;12.70;6.92;;;;;;;-0.41;59.84;100108.25;1772708;81;21037;-38
2022/02/15 06:14:18;;;;;;;16.35;8.50;;;;;;;-0.36;59.80;100109.58;1772975;81;21116;-38
2022/02/15 06:16:45;;;;;;;11.18;6.97;;;;;;;-0.27;59.61;100110.63;1772675;81;21024;-38
2022/02/15 06:19:16;;;;;;;13.72;7.35;;;;;;;-0.21;59.38;100103.42;1773122;80;20998;-38
2022/02/15 06:21:44;;;;;;;15.03;7.62;;;;;;;-0.15;59.27;100103.69;1772675;81;21045;-38
2022/02/15 06:24:13;;;;;;;13.30;7.00;;;;;;;-0.08;58.99;100108.18;1773383;79;21102;-38
2022/02/15 06:26:39;;;;;;;12.90;7.25;;;;;;;-0.03;58.90;100108.16;1772878;79;21843;-38
2022/02/15 06:29:20;;;;;;;13.48;7.58;;;;;;;0.05;58.75;100106.27;1765270;80;21021;-39
2022/02/15 06:31:48;;;;;;;16.17;7.75;;;;;;;0.12;58.49;100100.12;1773466;79;21217;-39
2022/02/15 06:34:16;;;;;;;14.10;7.30;;;;;;;0.16;58.04;100098.50;1773195;79;21005;-38
2022/02/15 06:36:43;;;;;;;11.55;7.20;;;;;;;0.20;57.83;100094.75;1785776;79;21053;-38
2022/02/15 06:39:10;;;;;;;13.00;7.60;;;;;;;0.21;57.73;100091.81;1772886;79;21118;-38
2022/02/15 06:41:38;;;;;;;14.05;6.83;;;;;;;0.29;57.54;100093.91;1772702;81;20998;-38
2022/02/15 06:44:13;;;;;;;11.05;7.03;;;;;;;0.32;57.36;100093.91;1773105;80;21009;-39
2022/02/15 06:46:41;;;;;;;13.93;7.10;;;;;;;0.38;57.10;100098.95;1772833;79;21532;-38
2022/02/15 06:49:10;;;;;;;13.48;6.60;;;;;;;0.40;56.96;100092.80;1785159;79;21024;-39
2022/02/15 06:51:38;;;;;;;12.80;6.50;;;;;;;0.43;56.69;100092.80;1758412;80;21111;-38
2022/02/15 06:54:06;;;;;;;14.50;6.95;;;;;;;0.50;56.61;100094.62;1757721;81;21000;-38
2022/02/15 06:56:38;;;;;;;11.25;6.58;;;;;;;0.53;56.44;100095.95;1754437;81;21515;-38
2022/02/15 06:59:05;;;;;;;11.25;6.37;;;;;;;0.60;56.37;100099.90;1758200;81;21483;-38
2022/02/15 07:01:37;;;;;;;11.83;6.08;;;;;;;0.66;55.85;100099.34;1758550;81;21025;-39
2022/02/15 07:04:05;;;;;;;10.82;6.35;;;;;;;0.71;55.73;100093.97;1758143;81;21134;-38
2022/02/15 07:06:32;;;;;;;12.07;6.90;;;;;;;0.73;55.27;100094.48;1758442;81;21072;-38
2022/02/15 07:09:00;;;;;;;12.15;6.10;;;;;;;0.81;54.94;100095.25;1758348;81;20992;-38
2022/02/15 07:11:28;;;;;;;9.50;5.78;;;;;;;0.87;54.47;100090.14;1758111;81;21036;-39
2022/02/15 07:13:57;;;;;;;11.00;5.70;;;;;;;0.94;54.42;100089.81;1758232;81;20961;-39
2022/02/15 07:16:23;;;;;;;12.78;6.20;;;;;;;1.00;54.07;100090.04;1758221;81;21148;-39
2022/02/15 07:18:50;;;;;;;9.23;5.72;;;;;;;1.07;53.59;100095.31;1758086;81;20920;-39
2022/02/15 07:21:24;;;;;;;10.58;5.40;;;;;;;1.12;53.49;100089.13;1756730;81;21506;-38
2022/02/15 07:24:10;;;;;;;11.38;5.90;;;;;;;1.17;53.57;100089.09;1758030;81;21201;-39
2022/02/15 07:26:49;;;;;;;8.28;5.05;;;;;;;1.21;53.30;100085.59;1658254;81;20997;-39
2022/02/15 07:29:15;;;;;;;9.63;5.33;;;;;;;1.30;53.18;100083.13;1758140;81;21105;-39
2022/02/15 07:31:56;;;;;;;9.08;5.12;;;;;;;1.37;53.23;100078.78;1690661;81;21016;-39
2022/02/15 07:34:23;;;;;;;9.40;5.45;;;;;;;1.46;53.18;100081.09;1758201;81;20977;-39
2022/02/15 07:36:53;;;;;;;8.90;4.70;;;;;;;1.54;52.92;100082.64;1758119;81;21068;-39
2022/02/15 07:39:19;;;;;;;8.28;4.35;;;;;;;1.63;52.97;100072.13;1758573;81;21705;-39
2022/02/15 07:41:49;;;;;;;7.95;4.47;;;;;;;1.77;53.14;100070.91;1757969;81;21126;-39
2022/02/15 07:44:17;;;;;;;8.43;4.58;;;;;;;1.91;52.88;100079.31;1758270;81;21019;-38
2022/02/15 07:46:46;;;;;;;8.33;4.58;;;;;;;2.09;52.27;100079.89;1758149;81;20937;-39
2022/02/15 07:49:15;;;;;;;8.60;4.78;;;;;;;2.21;51.85;100072.02;1758145;81;21530;-39
2022/02/15 07:51:42;;;;;;;7.85;4.53;;;;;;;2.34;51.21;100071.30;1752444;81;21081;-38
2022/02/15 07:54:09;;;;;;;7.22;4.15;;;;;;;2.48;51.42;100061.48;1758358;81;21141;-39
2022/02/15 07:56:35;;;;;;;10.78;4.28;;;;;;;2.63;51.10;100070.64;1758123;81;20965;-38
2022/02/15 07:59:05;;;;;;;9.68;4.08;;;;;;;2.79;50.51;100065.33;1758397;81;20981;-39
2022/02/15 08:01:32;;;;;;;8.60;4.20;;;;;;;2.96;50.38;100074.96;1758368;81;21052;-39
2022/02/15 08:04:00;;;;;;;8.50;3.98;;;;;;;3.10;49.83;100062.19;1758435;81;21017;-39
2022/02/15 08:06:29;;;;;;;6.45;4.12;;;;;;;3.26;49.92;100074.22;1758141;81;21141;-39
2022/02/15 08:09:00;;;;;;;8.35;4.03;;;;;;;3.41;49.86;100065.93;1758234;81;21029;-40
2022/02/15 08:11:27;;;;;;;7.47;4.25;;;;;;;3.60;49.03;100069.88;1757982;81;21098;-39
2022/02/15 08:13:54;;;;;;;7.85;4.53;;;;;;;3.78;49.21;100059.62;1758103;81;21048;-39
2022/02/15 08:16:22;;;;;;;9.90;3.95;;;;;;;4.00;48.83;100057.60;1758083;81;21043;-39
2022/02/15 08:18:48;;;;;;;6.00;3.58;;;;;;;4.22;48.19;100059.02;1757991;81;21058;-39
2022/02/15 08:21:15;;;;;;;8.05;3.90;;;;;;;4.40;47.89;100054.09;1758074;81;21076;-39
2022/02/15 08:23:44;;;;;;;5.83;3.98;;;;;;;4.58;47.64;100051.80;1758137;81;21028;-39
2022/02/15 08:26:10;;;;;;;5.40;3.50;;;;;;;4.74;46.91;100057.64;1758221;81;21017;-39
2022/02/15 08:28:41;;;;;;;5.20;3.60;;;;;;;4.87;46.38;100055.98;1758329;81;21040;-39
2022/02/15 08:31:05;;;;;;;6.37;3.85;;;;;;;5.01;45.60;100050.01;1758002;81;21117;-39
2022/02/15 08:33:33;;;;;;;6.10;3.77;;;;;;;5.12;45.54;100048.67;1758119;81;20897;-40
2022/02/15 08:36:00;;;;;;;8.03;3.50;;;;;;;5.19;44.76;100055.73;1758132;81;20984;-39
2022/02/15 08:38:26;;;;;;;7.78;3.58;;;;;;;5.27;44.81;100052.33;1758382;81;21033;-39
2022/02/15 08:40:53;;;;;;;5.20;3.60;;;;;;;5.38;45.20;100052.30;1758254;81;21067;-39
2022/02/15 08:43:21;;;;;;;6.05;3.33;;;;;;;5.50;45.00;100050.40;1758383;81;21526;-39
2022/02/15 08:45:48;;;;;;;6.85;3.25;;;;;;;5.65;44.17;100047.31;1758020;81;21594;-39
2022/02/15 08:48:15;;;;;;;8.73;3.92;;;;;;;5.82;43.46;100045.23;1757872;81;21035;-39
2022/02/15 08:50:42;;;;;;;5.08;3.42;;;;;;;5.91;42.98;100051.46;1760505;81;21018;-39
2022/02/15 08:53:09;;;;;;;5.30;3.30;;;;;;;5.93;43.22;100046.02;1765926;81;21529;-39
2022/02/15 08:55:36;;;;;;;6.58;3.60;;;;;;;6.00;43.09;100036.16;1765647;81;21133;-39
2022/02/15 08:58:02;;;;;;;5.55;3.02;;;;;;;6.04;42.70;100033.08;1759923;81;21035;-39
2022/02/15 09:00:29;;;;;;;5.42;3.27;;;;;;;6.11;42.64;100039.58;1765591;81;21027;-39
2022/02/15 09:02:56;;;;;;;5.87;3.55;;;;;;;6.23;43.14;100034.95;1765620;81;21027;-39
2022/02/15 09:05:23;;;;;;;4.97;3.37;;;;;;;6.42;42.88;100028.72;1765777;81;21051;-39
2022/02/15 09:07:50;;;;;;;7.10;3.27;;;;;;;6.50;41.69;100027.92;1766063;81;21072;-39
2022/02/15 09:10:16;;;;;;;5.17;3.10;;;;;;;6.54;41.58;100037.51;1765817;81;21022;-39
2022/02/15 09:12:43;;;;;;;6.28;3.65;;;;;;;6.58;41.76;100036.34;1765974;81;20992;-39
2022/02/15 09:15:12;;;;;;;5.22;3.35;;;;;;;6.65;41.94;100038.80;1765947;81;21047;-39
2022/02/15 09:17:40;;;;;;;6.83;3.67;;;;;;;6.75;41.75;100040.37;1766414;81;21030;-40
2022/02/15 09:20:08;;;;;;;5.42;3.67;;;;;;;6.83;41.22;100030.14;1765985;81;21129;-40
2022/02/15 09:22:35;;;;;;;7.10;3.20;;;;;;;6.88;41.80;100035.38;1766091;81;21469;-40
2022/02/15 09:25:01;;;;;;;6.55;3.83;;;;;;;7.02;41.39;100033.30;1765745;81;21010;-39
2022/02/15 09:27:28;;;;;;;5.97;2.90;;;;;;;7.17;40.42;100026.62;1766180;81;21023;-39
2022/02/15 09:29:54;;;;;;;5.90;3.33;;;;;;;7.26;40.11;100021.44;1765789;81;21094;-40
2022/02/15 09:32:21;;;;;;;5.65;3.42;;;;;;;7.29;39.94;100023.52;1766001;81;21807;-40
2022/02/15 09:34:48;;;;;;;5.00;3.00;;;;;;;7.29;40.02;100025.42;1765692;81;21576;-40
2022/02/15 09:37:14;;;;;;;4.37;3.15;;;;;;;7.31;39.99;100022.63;1765841;81;21023;-40
2022/02/15 09:39:42;;;;;;;5.85;3.25;;;;;;;7.38;39.58;100031.03;1765677;81;21552;-40
2022/02/15 09:42:09;;;;;;;4.85;3.35;;;;;;;7.39;39.41;100023.73;1765605;81;21047;-40
2022/02/15 09:44:36;;;;;;;5.78;3.30;;;;;;;7.42;39.50;100024.42;1765885;81;21110;-40
2022/02/15 09:47:04;;;;;;;5.70;3.35;;;;;;;7.48;39.34;100028.54;1766238;81;20971;-40
2022/02/15 09:49:49;;;;;;;5.83;3.55;;;;;;;7.51;38.78;100016.30;1762891;81;20956;-40
2022/02/15 09:52:17;;;;;;;7.50;3.80;;;;;;;7.56;38.64;100018.27;1773454;79;21008;-40
2022/02/15 09:54:46;;;;;;;8.50;3.70;;;;;;;7.61;38.81;100015.39;1773112;81;21449;-40
2022/02/15 09:57:14;;;;;;;6.33;4.28;;;;;;;7.68;39.37;100004.10;1772975;81;21137;-40
2022/02/15 09:59:41;;;;;;;6.28;3.90;;;;;;;7.77;39.48;99998.11;1772515;80;20994;-40
2022/02/15 10:02:15;;;;;;;9.98;4.70;;;;;;;7.86;39.64;99994.80;1772920;81;20959;-40
2022/02/15 10:04:42;;;;;;;9.68;4.22;;;;;;;7.93;40.15;99996.45;1772839;79;21216;-40
2022/02/15 10:07:12;;;;;;;6.70;3.90;;;;;;;8.02;39.60;99994.48;1772748;81;21084;-40
2022/02/15 10:09:41;;;;;;;6.00;3.50;;;;;;;8.09;38.49;99993.95;1772942;81;21835;-40
2022/02/15 10:12:11;;;;;;;8.15;3.90;;;;;;;8.02;38.16;99993.14;1772821;81;20914;-40
2022/02/15 10:14:39;;;;;;;8.00;4.42;;;;;;;7.96;38.82;99982.28;1773053;81;21013;-40
2022/02/15 10:17:07;;;;;;;7.37;4.05;;;;;;;8.06;39.11;99994.06;1772834;81;21524;-40
2022/02/15 10:19:34;;;;;;;6.60;3.80;;;;;;;8.28;39.06;99988.34;1772868;81;20986;-40
2022/02/15 10:22:04;;;;;;;7.90;4.28;;;;;;;8.49;38.46;99978.14;1772862;79;21139;-40
2022/02/15 10:24:36;;;;;;;6.37;4.30;;;;;;;8.63;38.65;99983.50;1772958;81;20965;-40
2022/02/15 10:27:10;;;;;;;7.15;4.17;;;;;;;8.73;38.05;99974.98;1772896;80;20977;-40
2022/02/15 10:29:40;;;;;;;6.80;4.35;;;;;;;8.86;37.48;99976.41;1772850;81;20990;-40
2022/02/15 10:32:11;;;;;;;6.90;4.33;;;;;;;8.89;37.56;99968.97;1773215;81;21061;-40
2022/02/15 10:34:46;;;;;;;7.75;4.60;;;;;;;8.80;37.74;99966.35;1773081;81;21125;-40
2022/02/15 10:37:14;;;;;;;9.33;4.70;;;;;;;8.82;38.15;99961.39;1772966;79;21017;-40
2022/02/15 10:39:48;;;;;;;8.45;4.60;;;;;;;8.89;38.05;99968.97;1771133;79;20910;-40
2022/02/15 10:42:16;;;;;;;5.40;3.98;;;;;;;8.96;36.69;99961.88;1766768;81;21069;-40
2022/02/15 10:45:01;;;;;;;7.37;4.72;;;;;;;8.98;37.26;99959.64;1766541;81;21072;-40
2022/02/15 10:47:38;;;;;;;7.12;4.67;;;;;;;9.15;37.54;99958.09;1762614;81;21918;-40
2022/02/15 10:50:09;;;;;;;7.58;4.47;;;;;;;9.38;36.82;99957.14;1768426;80;20945;-40
2022/02/15 10:52:36;;;;;;;7.15;4.70;;;;;;;9.45;36.56;99953.30;1777118;78;21063;-40
2022/02/15 10:55:05;;;;;;;6.92;4.87;;;;;;;9.51;35.77;99955.23;1791811;80;21072;-40
2022/02/15 10:57:32;;;;;;;6.85;4.78;;;;;;;9.53;36.03;99958.40;1791969;79;21001;-40
2022/02/15 11:00:00;;;;;;;8.18;4.62;;;;;;;9.47;35.59;99955.12;1791958;80;21085;-41
2022/02/15 11:02:30;;;;;;;7.17;4.85;;;;;;;9.40;36.34;99953.52;1772147;80;20929;-40
2022/02/15 11:05:01;;;;;;;7.72;4.85;;;;;;;9.40;36.13;99945.96;1792012;80;21538;-40
2022/02/15 11:07:31;;;;;;;8.48;5.45;;;;;;;9.29;36.48;99947.55;1791773;80;20960;-40
2022/02/15 11:10:09;;;;;;;7.67;4.80;;;;;;;9.18;36.56;99947.19;1772663;80;21056;-40
2022/02/15 11:12:52;;;;;;;7.60;5.25;;;;;;;9.20;37.02;99945.50;1791699;80;21132;-40
2022/02/15 11:15:26;;;;;;;7.28;4.80;;;;;;;9.20;37.31;99956.33;1791820;80;21023;-41
2022/02/15 11:18:05;;;;;;;7.62;4.87;;;;;;;9.14;37.34;99940.31;1791991;79;21071;-41
2022/02/15 11:20:56;;;;;;;6.92;4.67;;;;;;;9.24;37.49;99940.44;1785796;80;21597;-41
2022/02/15 11:23:32;;;;;;;7.08;5.40;;;;;;;9.40;37.71;99945.96;1786028;80;21691;-41
2022/02/15 11:26:17;;;;;;;9.35;4.90;;;;;;;9.57;37.24;99926.25;1786061;79;21141;-41
2022/02/15 11:28:50;;;;;;;7.55;5.20;;;;;;;9.78;37.32;99930.77;1786072;80;20999;-41
2022/02/15 11:31:31;;;;;;;6.67;4.85;;;;;;;9.93;36.76;99923.27;1785846;79;21038;-41
2022/02/15 11:34:02;;;;;;;6.85;4.78;;;;;;;10.02;36.87;99922.02;1785928;80;21032;-41
2022/02/15 11:36:29;;;;;;;5.62;4.72;;;;;;;10.24;36.08;99926.75;1785745;80;21028;-41